Time;durP1;ratioP1;P1;durP2;ratioP2;P2;SDS_P1;SDS_P2;PMS_P1;PMS_P2;Temp;Humidity;BMP_temperature;BMP_pressure;BME280_temperature;BME280_humidity;BME280_pressure;Samples;Min_cycle;Max_cycle;Signal;HPM_P1;HPM_P2
2023/11/20 00:00:06;;;;;;;0.52;0.52;;;;;;;7.39;64.02;99625.25;4438256;32;34502;-81
2023/11/20 00:02:42;;;;;;;2.47;1.70;;;;;;;7.47;63.34;99632.88;4439206;32;33143;-81
2023/11/20 00:05:11;;;;;;;27.25;2.30;;;;;;;7.38;63.92;99644.56;4438673;32;34091;-80
2023/11/20 00:07:39;;;;;;;0.80;0.80;;;;;;;7.53;63.60;99637.91;4424428;32;34445;-80
2023/11/20 00:10:07;;;;;;;1.25;1.12;;;;;;;7.38;64.00;99636.66;4425311;32;33949;-80
2023/11/20 00:12:35;;;;;;;0.28;0.28;;;;;;;7.44;64.13;99639.94;4438076;32;33673;-80
2023/11/20 00:15:03;;;;;;;0.85;0.85;;;;;;;7.40;63.98;99654.06;4425482;32;33163;-80
2023/11/20 00:17:31;;;;;;;1.48;1.10;;;;;;;7.40;64.21;99653.22;4425193;32;32726;-80
2023/11/20 00:19:59;;;;;;;1.80;1.73;;;;;;;7.65;63.17;99658.53;4433684;32;33151;-80
2023/11/20 00:22:26;;;;;;;1.75;1.65;;;;;;;7.79;62.53;99651.03;4437602;32;34397;-79
2023/11/20 00:24:56;;;;;;;4.70;2.10;;;;;;;7.74;62.72;99646.81;4437627;32;33059;-79
2023/11/20 00:27:24;;;;;;;1.17;1.17;;;;;;;7.39;63.83;99660.25;4425079;32;32995;-79
2023/11/20 00:29:51;;;;;;;4.30;1.40;;;;;;;7.33;64.34;99663.09;4436538;32;33864;-79
2023/11/20 00:32:19;;;;;;;1.92;1.83;;;;;;;7.33;64.78;99659.59;4413856;32;33338;-79
2023/11/20 00:34:47;;;;;;;3.50;2.70;;;;;;;7.71;63.68;99639.91;4436708;32;34023;-80
2023/11/20 00:37:16;;;;;;;1.08;1.02;;;;;;;7.73;63.06;99635.47;4425437;32;33199;-80
2023/11/20 00:39:46;;;;;;;3.97;2.83;;;;;;;7.43;64.39;99648.72;4437988;32;34297;-80
2023/11/20 00:42:14;;;;;;;1.17;1.08;;;;;;;7.27;65.21;99663.28;4409129;32;33039;-80
2023/11/20 00:44:42;;;;;;;0.82;0.82;;;;;;;7.51;65.02;99663.41;4451874;32;34104;-80
2023/11/20 00:47:11;;;;;;;0.77;0.77;;;;;;;7.87;63.65;99680.53;4437790;32;33390;-80
2023/11/20 00:49:38;;;;;;;2.67;2.35;;;;;;;7.97;63.33;99699.47;4450414;32;34301;-80
2023/11/20 00:52:06;;;;;;;1.02;1.02;;;;;;;8.01;63.17;99729.16;4424693;32;34086;-80
2023/11/20 00:54:34;;;;;;;1.17;1.17;;;;;;;7.66;63.97;99746.97;4426705;32;33147;-80
2023/11/20 00:57:02;;;;;;;1.40;1.40;;;;;;;7.93;63.64;99738.19;4426930;32;33283;-80
2023/11/20 00:59:30;;;;;;;1.27;1.23;;;;;;;7.63;64.32;99712.91;4439597;32;34492;-80
2023/11/20 01:01:57;;;;;;;0.30;0.30;;;;;;;7.42;65.52;99675.91;4439962;32;34747;-80
2023/11/20 01:04:25;;;;;;;1.62;1.52;;;;;;;7.46;65.56;99649.56;4439860;32;33804;-79
2023/11/20 01:06:53;;;;;;;1.08;1.08;;;;;;;7.50;65.07;99644.16;4439709;32;34852;-80
2023/11/20 01:09:21;;;;;;;2.08;1.90;;;;;;;7.42;65.73;99633.88;4439649;32;34520;-80
2023/11/20 01:11:48;;;;;;;0.90;0.90;;;;;;;7.55;65.21;99628.19;4427021;32;33032;-80
2023/11/20 01:14:16;;;;;;;2.55;1.58;;;;;;;7.49;65.35;99631.03;4412454;32;33235;-79
2023/11/20 01:16:44;;;;;;;3.25;1.20;;;;;;;7.88;63.63;99639.31;4418524;32;33135;-79
2023/11/20 01:19:12;;;;;;;1.12;1.00;;;;;;;7.52;64.71;99646.72;4431568;32;33600;-79
2023/11/20 01:21:42;;;;;;;1.98;1.33;;;;;;;7.40;65.21;99643.56;4418880;32;33566;-79
2023/11/20 01:24:10;;;;;;;2.70;2.35;;;;;;;7.51;64.44;99664.25;4438917;32;32906;-80
2023/11/20 01:26:38;;;;;;;2.75;1.73;;;;;;;7.44;64.79;99671.47;4453576;32;33608;-80
2023/11/20 01:29:07;;;;;;;1.27;1.20;;;;;;;7.46;64.77;99657.44;4439618;32;33501;-80
2023/11/20 01:31:35;;;;;;;1.62;1.55;;;;;;;7.43;64.69;99667.13;4439591;32;33094;-79
2023/11/20 01:34:03;;;;;;;0.25;0.25;;;;;;;7.37;64.92;99664.72;4439482;32;33015;-79
2023/11/20 01:36:30;;;;;;;0.93;0.82;;;;;;;7.43;64.15;99664.50;4451439;32;33696;-79
2023/11/20 01:38:58;;;;;;;1.20;1.10;;;;;;;7.36;64.79;99641.97;4439592;32;33770;-79
2023/11/20 01:41:28;;;;;;;1.27;1.23;;;;;;;7.42;64.61;99628.63;4426748;32;33358;-79
2023/11/20 01:43:56;;;;;;;0.68;0.68;;;;;;;7.44;64.45;99629.44;4439391;32;34600;-79
2023/11/20 01:46:27;;;;;;;1.58;1.48;;;;;;;7.50;64.56;99631.00;4425749;32;32807;-80
2023/11/20 01:48:57;;;;;;;1.73;1.62;;;;;;;7.39;64.82;99631.34;4439111;32;33519;-80
2023/11/20 01:51:28;;;;;;;4.00;2.83;;;;;;;7.38;64.62;99623.53;4430667;32;33413;-80
2023/11/20 01:53:57;;;;;;;1.52;1.12;;;;;;;7.50;64.18;99632.75;4452312;32;33659;-80
2023/11/20 01:56:25;;;;;;;2.15;1.95;;;;;;;7.44;64.14;99616.28;4452875;32;33717;-80
2023/11/20 01:58:59;;;;;;;3.42;0.98;;;;;;;7.33;64.02;99625.47;4438796;32;33463;-80
2023/11/20 02:01:27;;;;;;;2.08;0.90;;;;;;;7.35;63.84;99624.47;4425839;32;34131;-80
2023/11/20 02:03:59;;;;;;;3.17;1.58;;;;;;;7.21;63.69;99631.09;4426583;32;33418;-80
2023/11/20 02:06:27;;;;;;;1.37;1.37;;;;;;;7.24;63.62;99637.13;4438845;32;33448;-79
2023/11/20 02:08:55;;;;;;;1.25;1.25;;;;;;;7.09;63.71;99629.75;4426455;32;32662;-80
2023/11/20 02:11:23;;;;;;;1.92;1.83;;;;;;;7.31;62.83;99638.66;4439087;32;34170;-79
2023/11/20 02:13:52;;;;;;;0.57;0.57;;;;;;;7.23;62.99;99635.41;4426404;32;33744;-79
2023/11/20 02:16:20;;;;;;;3.10;1.55;;;;;;;7.24;62.99;99636.25;4426509;32;34216;-80
2023/11/20 02:18:53;;;;;;;0.88;0.88;;;;;;;7.12;63.08;99637.50;4439306;32;33178;-80
2023/11/20 02:21:20;;;;;;;0.43;0.43;;;;;;;7.02;63.13;99636.09;4426152;32;33644;-80
2023/11/20 02:23:48;;;;;;;0.90;0.90;;;;;;;7.02;63.29;99649.22;4452552;32;34069;-80
2023/11/20 02:26:16;;;;;;;1.17;0.75;;;;;;;6.92;63.35;99646.88;4432471;32;32650;-80
2023/11/20 02:28:58;;;;;;;1.87;1.70;;;;;;;6.76;64.00;99644.78;4438901;32;33850;-80
2023/11/20 02:31:28;;;;;;;0.98;0.88;;;;;;;6.70;63.52;99650.22;4417120;32;34486;-80
2023/11/20 02:33:57;;;;;;;0.20;0.20;;;;;;;6.59;63.70;99651.37;4426390;32;35152;-80
2023/11/20 02:36:25;;;;;;;0.55;0.55;;;;;;;6.50;64.26;99649.03;4451822;32;33255;-80
2023/11/20 02:38:53;;;;;;;3.10;2.20;;;;;;;6.69;63.62;99641.47;4425772;32;34174;-79
2023/11/20 02:41:21;;;;;;;0.73;0.73;;;;;;;6.51;63.51;99645.53;4426260;32;34703;-80
2023/11/20 02:43:49;;;;;;;1.17;0.88;;;;;;;6.53;63.32;99643.72;4439462;32;34138;-80
2023/11/20 02:46:17;;;;;;;0.35;0.35;;;;;;;6.73;62.68;99640.47;4437801;32;35927;-79
2023/11/20 02:48:45;;;;;;;0.73;0.73;;;;;;;6.58;62.90;99640.94;4413418;32;33300;-80
2023/11/20 02:51:12;;;;;;;1.15;0.47;;;;;;;6.49;62.97;99641.22;4426113;32;32790;-80
2023/11/20 02:53:40;;;;;;;0.95;0.95;;;;;;;6.55;63.07;99641.03;4451943;32;33617;-79
2023/11/20 02:56:08;;;;;;;3.35;0.80;;;;;;;6.36;63.45;99648.56;4424199;32;34085;-79
2023/11/20 02:58:36;;;;;;;2.10;1.95;;;;;;;6.22;63.72;99642.87;4438685;32;33336;-81
2023/11/20 03:01:04;;;;;;;0.82;0.82;;;;;;;6.31;63.20;99645.22;4451063;32;33632;-80
2023/11/20 03:03:33;;;;;;;0.62;0.62;;;;;;;6.31;63.26;99650.47;4438962;32;34131;-81
2023/11/20 03:06:01;;;;;;;0.98;0.98;;;;;;;6.07;64.38;99644.16;4425366;32;33412;-80
2023/11/20 03:08:29;;;;;;;0.70;0.70;;;;;;;6.20;64.30;99645.53;4426388;32;33729;-81
2023/11/20 03:10:56;;;;;;;1.52;1.42;;;;;;;6.26;63.65;99640.13;4451698;32;34039;-80
2023/11/20 03:13:24;;;;;;;1.20;1.17;;;;;;;6.60;62.37;99644.41;4439080;32;34845;-79
2023/11/20 03:15:52;;;;;;;0.08;0.08;;;;;;;6.67;61.41;99632.81;4425286;32;34259;-80
2023/11/20 03:18:20;;;;;;;0.50;0.50;;;;;;;5.99;64.07;99638.28;4435050;32;33812;-79
2023/11/20 03:20:50;;;;;;;0.95;0.95;;;;;;;5.92;64.34;99641.97;4426373;32;34319;-80
2023/11/20 03:23:19;;;;;;;1.55;1.48;;;;;;;6.03;63.97;99647.75;4429232;32;33873;-79
2023/11/20 03:25:47;;;;;;;0.50;0.50;;;;;;;6.08;63.56;99653.78;4438617;32;33295;-79
2023/11/20 03:28:15;;;;;;;0.00;0.00;;;;;;;5.97;64.32;99643.56;4438620;32;33244;-79
2023/11/20 03:30:43;;;;;;;0.30;0.30;;;;;;;6.13;62.96;99641.38;4426191;32;34210;-79
2023/11/20 03:33:11;;;;;;;1.48;1.40;;;;;;;6.11;63.56;99635.31;4452763;32;34049;-79
2023/11/20 03:35:39;;;;;;;1.30;1.20;;;;;;;5.96;64.48;99622.63;4438789;32;34464;-79
2023/11/20 03:38:07;;;;;;;0.00;0.00;;;;;;;5.93;64.55;99614.84;4426125;32;33551;-79
2023/11/20 03:40:35;;;;;;;0.30;0.30;;;;;;;5.96;64.56;99605.16;4426147;32;34027;-79
2023/11/20 03:43:04;;;;;;;0.90;0.90;;;;;;;5.93;64.48;99593.88;4438872;32;34045;-80
2023/11/20 03:45:32;;;;;;;0.52;0.52;;;;;;;6.09;64.45;99585.56;4439348;32;33778;-79
2023/11/20 03:48:00;;;;;;;1.08;0.98;;;;;;;6.04;64.39;99592.69;4451515;32;33586;-79
2023/11/20 03:50:28;;;;;;;1.20;1.10;;;;;;;6.16;64.23;99578.38;4438386;32;33848;-80
2023/11/20 03:52:55;;;;;;;0.55;0.55;;;;;;;6.24;64.44;99579.00;4425512;32;33234;-81
2023/11/20 03:55:23;;;;;;;0.62;0.60;;;;;;;6.25;64.28;99572.84;4428969;32;33144;-80
2023/11/20 03:57:51;;;;;;;0.10;0.10;;;;;;;6.25;64.65;99562.38;4451424;32;34456;-82
2023/11/20 04:00:19;;;;;;;1.52;1.45;;;;;;;6.22;64.58;99549.38;4425604;32;34387;-80
2023/11/20 04:02:48;;;;;;;0.73;0.73;;;;;;;6.19;64.97;99565.19;4425375;32;34337;-80
2023/11/20 04:05:16;;;;;;;0.47;0.47;;;;;;;6.45;64.02;99560.91;4437720;32;33438;-79
2023/11/20 04:07:44;;;;;;;0.47;0.47;;;;;;;6.45;63.59;99550.41;4425607;32;32745;-79
2023/11/20 04:10:12;;;;;;;0.17;0.17;;;;;;;6.17;64.51;99561.72;4437818;32;35305;-79
2023/11/20 04:12:40;;;;;;;0.00;0.00;;;;;;;6.11;64.92;99561.91;4425735;32;33470;-79
2023/11/20 04:15:09;;;;;;;1.10;0.57;;;;;;;6.19;64.52;99559.94;4425251;32;35389;-80
2023/11/20 04:17:38;;;;;;;3.30;1.62;;;;;;;6.12;64.49;99561.00;4425711;32;34844;-79
2023/11/20 04:20:07;;;;;;;0.20;0.20;;;;;;;6.02;64.79;99557.78;4438032;32;34776;-79
2023/11/20 04:22:35;;;;;;;1.45;1.35;;;;;;;6.10;64.76;99563.69;4425135;32;33910;-79
2023/11/20 04:25:05;;;;;;;0.62;0.60;;;;;;;6.22;64.47;99565.09;4438227;32;34033;-79
2023/11/20 04:27:33;;;;;;;0.62;0.62;;;;;;;6.10;64.87;99579.41;4415473;32;33222;-80
2023/11/20 04:30:00;;;;;;;0.90;0.77;;;;;;;6.25;63.90;99575.47;4440188;32;32848;-80
2023/11/20 04:32:28;;;;;;;2.08;0.47;;;;;;;6.08;63.63;99585.62;4439853;32;32943;-80
2023/11/20 04:34:56;;;;;;;1.08;0.95;;;;;;;6.03;64.18;99601.47;4439100;32;33736;-79
2023/11/20 04:37:24;;;;;;;0.47;0.47;;;;;;;5.88;64.46;99620.19;4439438;32;33508;-79
2023/11/20 04:39:52;;;;;;;0.35;0.35;;;;;;;5.97;64.39;99621.72;4426925;32;34032;-80
2023/11/20 04:42:20;;;;;;;0.65;0.65;;;;;;;6.02;64.08;99614.59;4440127;32;33200;-79
2023/11/20 04:44:47;;;;;;;1.00;0.95;;;;;;;5.91;64.17;99614.88;4426763;32;32370;-80
2023/11/20 04:47:16;;;;;;;1.65;1.55;;;;;;;5.97;64.05;99611.25;4440202;32;34232;-80
2023/11/20 04:49:43;;;;;;;0.32;0.32;;;;;;;5.98;64.22;99606.00;4419575;32;34009;-80
2023/11/20 04:52:11;;;;;;;1.08;0.98;;;;;;;5.96;64.26;99601.69;4439732;32;33334;-79
2023/11/20 04:54:39;;;;;;;0.65;0.65;;;;;;;6.03;64.48;99606.72;4420225;32;32490;-80
2023/11/20 04:57:09;;;;;;;0.77;0.77;;;;;;;6.18;64.40;99594.94;4438507;32;32786;-79
2023/11/20 04:59:37;;;;;;;0.98;0.95;;;;;;;6.08;64.34;99593.47;4452672;32;33886;-80
2023/11/20 05:02:05;;;;;;;0.10;0.10;;;;;;;6.07;64.01;99587.34;4426873;32;33778;-80
2023/11/20 05:04:32;;;;;;;1.17;1.08;;;;;;;6.02;64.97;99593.62;4432845;32;32643;-80
2023/11/20 05:07:00;;;;;;;1.10;1.10;;;;;;;6.18;64.12;99583.59;4426888;32;33580;-81
2023/11/20 05:09:28;;;;;;;0.47;0.47;;;;;;;6.31;63.97;99585.78;4427577;32;33951;-80
2023/11/20 05:11:57;;;;;;;0.80;0.80;;;;;;;6.15;64.55;99579.28;4418070;32;36217;-80
2023/11/20 05:14:24;;;;;;;1.65;1.23;;;;;;;6.13;64.55;99586.34;4439855;32;32839;-81
2023/11/20 05:16:52;;;;;;;3.35;0.95;;;;;;;6.46;63.02;99583.59;4426654;32;33289;-79
2023/11/20 05:19:20;;;;;;;2.70;2.50;;;;;;;6.36;62.22;99583.91;4452235;32;34470;-79
2023/11/20 05:21:48;;;;;;;2.30;2.20;;;;;;;6.23;63.30;99582.53;4452854;32;34410;-79
2023/11/20 05:24:16;;;;;;;0.43;0.43;;;;;;;6.02;63.42;99591.00;4428988;32;32031;-80
2023/11/20 05:26:43;;;;;;;0.50;0.50;;;;;;;5.86;64.11;99599.28;4439977;32;33591;-80
2023/11/20 05:29:12;;;;;;;0.50;0.50;;;;;;;5.89;64.22;99601.81;4426556;32;32836;-79
2023/11/20 05:31:43;;;;;;;0.75;0.75;;;;;;;5.87;64.50;99608.00;4452047;32;34414;-79
2023/11/20 05:34:11;;;;;;;1.80;1.70;;;;;;;6.07;63.66;99603.06;4439927;32;33665;-79
2023/11/20 05:36:39;;;;;;;0.88;0.88;;;;;;;6.11;62.71;99603.84;4414373;32;33075;-79
2023/11/20 05:39:08;;;;;;;0.95;0.95;;;;;;;6.01;63.57;99599.78;4440252;32;33137;-79
2023/11/20 05:41:36;;;;;;;0.28;0.28;;;;;;;6.05;63.47;99598.81;4424069;32;34255;-81
2023/11/20 05:44:03;;;;;;;1.27;1.17;;;;;;;5.89;63.43;99599.22;4426271;32;34761;-80
2023/11/20 05:46:31;;;;;;;1.48;1.37;;;;;;;5.87;64.05;99606.22;4425637;32;32969;-79
2023/11/20 05:48:59;;;;;;;12.85;0.57;;;;;;;5.88;63.47;99607.94;4439384;32;33149;-79
2023/11/20 05:51:27;;;;;;;0.30;0.30;;;;;;;5.77;64.10;99614.41;4439990;32;33007;-79
2023/11/20 05:53:55;;;;;;;3.20;1.45;;;;;;;5.80;64.56;99611.69;4426728;32;33548;-80
2023/11/20 05:56:23;;;;;;;2.78;1.60;;;;;;;5.78;64.52;99606.47;4439574;32;32401;-80
2023/11/20 05:58:50;;;;;;;0.25;0.25;;;;;;;5.74;64.69;99614.47;4438974;32;33962;-79
2023/11/20 06:01:18;;;;;;;1.95;1.75;;;;;;;5.84;63.98;99595.84;4438266;32;33129;-80
2023/11/20 06:03:46;;;;;;;1.45;1.35;;;;;;;5.82;64.13;99599.41;4426430;32;34103;-79
2023/11/20 06:06:20;;;;;;;2.60;2.40;;;;;;;5.76;64.26;99603.06;4426499;32;33205;-79
2023/11/20 06:08:49;;;;;;;0.65;0.65;;;;;;;5.93;63.89;99599.13;4437540;32;32863;-79
2023/11/20 06:11:20;;;;;;;0.30;0.30;;;;;;;5.73;63.99;99595.28;4429717;32;33338;-79
2023/11/20 06:13:48;;;;;;;0.40;0.40;;;;;;;5.74;64.52;99604.84;4451907;32;32969;-80
2023/11/20 06:16:16;;;;;;;0.00;0.00;;;;;;;5.69;64.49;99601.50;4444803;32;33885;-80
2023/11/20 06:18:44;;;;;;;0.57;0.57;;;;;;;6.13;62.22;99594.19;4437790;32;34012;-80
2023/11/20 06:21:12;;;;;;;1.65;0.90;;;;;;;6.20;61.57;99606.22;4438131;32;33632;-80
2023/11/20 06:23:40;;;;;;;2.67;2.47;;;;;;;5.87;62.62;99610.63;4437322;32;33539;-80
2023/11/20 06:26:08;;;;;;;0.60;0.60;;;;;;;5.48;64.50;99630.88;4425174;32;34164;-79
2023/11/20 06:28:37;;;;;;;1.73;1.42;;;;;;;5.68;63.68;99625.97;4438404;32;34658;-79
2023/11/20 06:31:05;;;;;;;2.80;1.65;;;;;;;5.98;62.88;99626.06;4437760;32;34759;-79
2023/11/20 06:33:32;;;;;;;2.87;2.67;;;;;;;6.07;62.57;99638.91;4438608;32;32843;-79
2023/11/20 06:36:02;;;;;;;0.60;0.60;;;;;;;5.79;63.74;99641.41;4423980;32;32630;-79
2023/11/20 06:38:30;;;;;;;1.12;1.12;;;;;;;5.84;63.36;99642.13;4436993;32;33461;-79
2023/11/20 06:41:03;;;;;;;0.35;0.35;;;;;;;5.59;64.43;99662.88;4436758;32;34366;-80
2023/11/20 06:43:31;;;;;;;2.17;2.08;;;;;;;5.73;64.12;99658.16;4426354;32;34138;-80
2023/11/20 06:45:59;;;;;;;1.17;1.17;;;;;;;5.76;64.14;99660.69;4438509;32;33257;-81
2023/11/20 06:48:28;;;;;;;1.37;1.27;;;;;;;5.79;63.93;99663.25;4425955;32;33479;-80
2023/11/20 06:50:56;;;;;;;0.88;0.88;;;;;;;5.88;63.88;99660.34;4433366;32;33624;-80
2023/11/20 06:53:25;;;;;;;0.68;0.68;;;;;;;5.99;63.76;99657.50;4424224;32;33552;-80
2023/11/20 06:55:53;;;;;;;0.25;0.25;;;;;;;6.07;63.58;99662.50;4438511;32;34202;-80
2023/11/20 06:58:20;;;;;;;2.20;2.08;;;;;;;5.99;64.33;99656.63;4437990;32;33109;-80
2023/11/20 07:00:48;;;;;;;1.58;1.48;;;;;;;6.11;63.88;99651.03;4438958;32;34788;-80
2023/11/20 07:03:19;;;;;;;0.80;0.80;;;;;;;6.21;63.88;99647.25;4451984;32;33660;-80
2023/11/20 07:05:47;;;;;;;0.65;0.65;;;;;;;6.19;63.80;99658.69;4435090;32;33252;-80
2023/11/20 07:08:16;;;;;;;0.93;0.93;;;;;;;6.32;63.97;99653.06;4425318;32;33589;-80
2023/11/20 07:10:47;;;;;;;1.23;1.05;;;;;;;6.34;64.61;99651.25;4437994;32;34171;-80
2023/11/20 07:14:00;;;;;;;5.47;2.85;;;;;;;6.40;64.78;99642.34;4409353;32;34158;-80
2023/11/20 07:16:28;;;;;;;3.17;1.65;;;;;;;6.53;64.81;99642.84;4419985;32;33971;-80
2023/11/20 07:18:56;;;;;;;1.50;1.40;;;;;;;6.65;65.13;99637.25;4403836;32;33148;-81
2023/11/20 07:21:26;;;;;;;2.65;1.80;;;;;;;6.81;65.14;99632.38;4420276;32;34086;-81
2023/11/20 07:23:55;;;;;;;2.90;2.70;;;;;;;6.89;64.99;99631.25;4419482;32;35013;-81
2023/11/20 07:26:23;;;;;;;0.95;0.95;;;;;;;6.73;66.77;99632.59;4419701;32;33172;-83
2023/11/20 07:28:50;;;;;;;4.05;2.90;;;;;;;7.07;66.02;99640.28;4409088;32;34702;-81
2023/11/20 07:31:29;;;;;;;3.47;3.25;;;;;;;7.15;66.17;99645.28;4419488;32;34315;-80
2023/11/20 07:33:56;;;;;;;2.78;2.58;;;;;;;7.32;66.16;99645.63;4406667;32;33536;-81
2023/11/20 07:36:25;;;;;;;2.60;2.40;;;;;;;7.83;64.80;99639.50;4406350;32;33226;-81
2023/11/20 07:38:53;;;;;;;2.05;1.85;;;;;;;7.70;65.08;99625.94;4419770;32;33734;-81
2023/11/20 07:41:20;;;;;;;3.22;2.12;;;;;;;7.92;65.04;99630.41;4416770;32;33308;-81
2023/11/20 07:43:48;;;;;;;2.72;2.50;;;;;;;7.63;66.30;99618.28;4414704;32;33018;-81
2023/11/20 07:46:16;;;;;;;2.10;1.92;;;;;;;7.57;66.12;99627.25;4449808;32;34448;-81
2023/11/20 07:48:44;;;;;;;0.85;0.82;;;;;;;7.74;66.19;99626.69;4422400;32;33843;-81
2023/11/20 07:51:12;;;;;;;1.52;1.37;;;;;;;8.13;65.31;99626.16;4438134;32;33117;-81
2023/11/20 07:53:40;;;;;;;3.53;3.20;;;;;;;8.14;65.30;99620.84;4431960;32;33569;-81
2023/11/20 07:56:07;;;;;;;1.42;1.33;;;;;;;8.32;65.67;99621.94;4432722;32;33840;-81
2023/11/20 07:58:35;;;;;;;2.33;2.05;;;;;;;8.49;65.88;99616.06;4424158;32;33944;-80
2023/11/20 08:01:04;;;;;;;1.37;1.27;;;;;;;8.65;65.79;99611.09;4451049;32;34164;-81
2023/11/20 08:03:32;;;;;;;3.97;3.58;;;;;;;8.78;65.66;99607.03;4424326;32;32532;-82
2023/11/20 08:06:01;;;;;;;1.77;1.67;;;;;;;8.54;66.41;99611.47;4440367;32;34583;-81
2023/11/20 08:08:48;;;;;;;0.85;0.85;;;;;;;8.84;66.04;99604.19;4440075;32;33598;-81
2023/11/20 08:11:16;;;;;;;2.20;2.10;;;;;;;8.70;66.37;99615.25;4440352;32;33864;-81
2023/11/20 08:13:44;;;;;;;0.85;0.85;;;;;;;8.81;66.07;99611.34;4439854;32;32528;-81
2023/11/20 08:16:11;;;;;;;0.95;0.95;;;;;;;8.63;67.51;99619.03;4452931;32;33826;-81
2023/11/20 08:18:39;;;;;;;1.17;0.73;;;;;;;8.72;67.59;99617.81;4451803;32;34668;-81
2023/11/20 08:21:07;;;;;;;0.68;0.60;;;;;;;8.98;67.27;99617.66;4439694;32;33455;-81
2023/11/20 08:23:35;;;;;;;3.55;0.82;;;;;;;9.32;66.25;99618.91;4450237;32;34499;-81
2023/11/20 08:26:05;;;;;;;2.00;1.80;;;;;;;9.05;67.66;99625.31;4439011;32;33993;-82
2023/11/20 08:28:33;;;;;;;2.37;1.52;;;;;;;9.26;67.27;99624.44;4430197;32;34753;-82
2023/11/20 08:31:01;;;;;;;0.35;0.35;;;;;;;9.67;66.55;99613.94;4451657;32;33968;-82
2023/11/20 08:33:29;;;;;;;1.20;1.17;;;;;;;9.42;67.19;99614.13;4426177;32;33181;-81
2023/11/20 08:35:57;;;;;;;3.53;2.78;;;;;;;9.33;67.79;99619.75;4422157;32;33867;-81
2023/11/20 08:38:25;;;;;;;4.35;1.60;;;;;;;9.58;67.29;99614.31;4437654;32;33625;-81
2023/11/20 08:40:53;;;;;;;1.80;1.30;;;;;;;9.40;68.08;99622.09;4436295;32;34357;-81
2023/11/20 08:43:23;;;;;;;1.52;1.42;;;;;;;9.53;67.94;99603.13;4439326;32;32808;-81
2023/11/20 08:45:50;;;;;;;2.95;2.00;;;;;;;9.67;68.47;99609.50;4438031;32;33124;-82
2023/11/20 08:48:32;;;;;;;3.15;2.95;;;;;;;9.96;67.55;99604.75;4420439;32;32806;-81
2023/11/20 08:51:00;;;;;;;2.95;2.08;;;;;;;9.80;68.91;99609.00;4450723;32;33753;-81
2023/11/20 08:53:28;;;;;;;8.35;2.58;;;;;;;10.12;68.17;99603.16;4452540;32;32660;-81
2023/11/20 08:55:56;;;;;;;3.80;2.45;;;;;;;10.08;68.58;99606.00;4439699;32;32979;-81
2023/11/20 08:58:24;;;;;;;2.67;1.80;;;;;;;10.37;68.26;99594.16;4454108;32;33926;-82
2023/11/20 09:00:52;;;;;;;1.35;1.25;;;;;;;10.44;68.58;99595.56;4437914;32;33898;-82
2023/11/20 09:03:20;;;;;;;4.65;2.50;;;;;;;10.95;67.93;99601.94;4439370;32;33579;-82
2023/11/20 09:05:48;;;;;;;2.40;2.12;;;;;;;10.37;69.63;99605.56;4437271;32;33130;-81
2023/11/20 09:08:15;;;;;;;1.77;1.70;;;;;;;10.45;70.38;99608.72;4424996;32;33607;-81
2023/11/20 09:10:44;;;;;;;1.75;1.17;;;;;;;11.08;68.52;99603.06;4425054;32;32977;-82
2023/11/20 09:13:12;;;;;;;2.30;2.08;;;;;;;10.72;69.46;99603.03;4438715;32;33372;-81
2023/11/20 09:15:40;;;;;;;1.30;1.23;;;;;;;10.56;70.69;99600.28;4436519;32;36222;-82
2023/11/20 09:18:08;;;;;;;2.03;1.92;;;;;;;10.68;71.08;99599.72;4427104;32;32916;-81
2023/11/20 09:20:35;;;;;;;1.15;1.15;;;;;;;10.94;70.65;99595.81;4433730;32;33693;-82
2023/11/20 09:23:03;;;;;;;0.85;0.85;;;;;;;11.15;70.15;99598.34;4438450;32;33577;-81
2023/11/20 09:25:31;;;;;;;2.90;1.08;;;;;;;11.28;69.86;99595.00;4438144;32;34361;-82
2023/11/20 09:27:59;;;;;;;1.23;1.17;;;;;;;11.73;68.71;99587.47;4426890;32;33851;-81
2023/11/20 09:30:27;;;;;;;1.87;1.50;;;;;;;11.45;69.64;99580.97;4438107;32;34778;-82
2023/11/20 09:32:54;;;;;;;1.62;1.50;;;;;;;11.40;69.95;99587.41;4431671;32;32654;-81
2023/11/20 09:35:22;;;;;;;0.43;0.43;;;;;;;11.67;69.20;99585.12;4435957;32;33921;-81
2023/11/20 09:37:51;;;;;;;6.82;1.65;;;;;;;11.58;69.88;99589.09;4436528;32;33557;-82
2023/11/20 09:40:19;;;;;;;1.77;1.67;;;;;;;11.81;69.50;99582.63;4438437;32;34403;-82
2023/11/20 09:42:47;;;;;;;2.03;1.87;;;;;;;11.89;69.50;99588.41;4436891;32;33524;-82
2023/11/20 09:45:29;;;;;;;1.48;1.37;;;;;;;12.05;69.29;99584.00;4437694;32;33856;-81
2023/11/20 09:48:00;;;;;;;2.70;2.35;;;;;;;12.14;69.19;99573.87;4426426;32;33937;-83
2023/11/20 09:50:28;;;;;;;1.25;1.10;;;;;;;12.47;68.43;99574.69;4449459;32;33227;-84
2023/11/20 09:52:57;;;;;;;1.98;1.67;;;;;;;12.62;67.18;99569.47;4449848;32;33400;-82
2023/11/20 09:55:26;;;;;;;5.90;2.20;;;;;;;12.17;69.48;99579.88;4425313;32;33098;-82
2023/11/20 09:57:54;;;;;;;0.75;0.75;;;;;;;12.28;68.96;99576.63;4435546;32;32747;-82
2023/11/20 10:00:23;;;;;;;4.07;1.23;;;;;;;12.34;69.45;99573.63;4421822;32;34558;-82
2023/11/20 10:02:51;;;;;;;1.12;1.08;;;;;;;12.45;68.83;99565.13;4435251;32;33530;-82
2023/11/20 10:05:31;;;;;;;0.77;0.77;;;;;;;12.45;68.72;99558.03;4436393;32;34739;-82
2023/11/20 10:08:02;;;;;;;0.80;0.75;;;;;;;12.59;68.79;99565.22;4430312;32;34430;-82
2023/11/20 10:10:33;;;;;;;1.37;1.27;;;;;;;12.41;69.54;99553.84;4432622;32;34114;-82
2023/11/20 10:13:04;;;;;;;1.33;1.23;;;;;;;12.47;69.18;99544.72;4437821;32;34018;-81
2023/11/20 10:15:33;;;;;;;1.10;0.97;;;;;;;12.61;68.46;99555.38;4439566;32;34118;-82
2023/11/20 10:18:01;;;;;;;0.52;0.52;;;;;;;12.73;68.24;99546.75;4437991;32;33614;-82
2023/11/20 10:20:47;;;;;;;4.80;2.20;;;;;;;12.82;66.44;99548.88;4436545;32;32686;-81
2023/11/20 10:23:19;;;;;;;0.00;0.00;;;;;;;12.89;65.55;99551.19;4451304;32;34312;-82
2023/11/20 10:25:47;;;;;;;0.50;0.50;;;;;;;12.78;64.83;99542.06;4438591;32;32758;-82
2023/11/20 10:28:15;;;;;;;0.68;0.25;;;;;;;12.98;64.98;99540.06;4437593;32;34292;-82
2023/11/20 10:30:43;;;;;;;0.30;0.30;;;;;;;13.11;64.19;99537.56;4426215;32;34121;-82
2023/11/20 10:33:18;;;;;;;0.35;0.35;;;;;;;13.02;63.96;99537.16;4437492;32;33816;-82
2023/11/20 10:35:47;;;;;;;0.05;0.05;;;;;;;12.95;64.37;99543.72;4433379;32;33069;-82
2023/11/20 10:38:15;;;;;;;0.00;0.00;;;;;;;13.12;61.85;99536.63;4449659;32;34279;-82
2023/11/20 10:40:44;;;;;;;0.00;0.00;;;;;;;13.06;63.10;99537.81;4438438;32;33466;-82
2023/11/20 10:43:12;;;;;;;0.77;0.77;;;;;;;13.28;61.24;99532.97;4436397;32;32030;-82
2023/11/20 10:45:40;;;;;;;0.00;0.00;;;;;;;13.21;60.73;99522.81;4436913;32;33114;-82
2023/11/20 10:48:08;;;;;;;0.10;0.10;;;;;;;13.28;60.63;99521.53;4438458;32;33115;-82
2023/11/20 10:50:36;;;;;;;0.13;0.13;;;;;;;13.31;61.97;99524.00;4438407;32;34107;-82
2023/11/20 10:53:06;;;;;;;0.00;0.00;;;;;;;13.58;61.35;99519.72;4429647;32;32406;-82
2023/11/20 10:55:42;;;;;;;0.20;0.20;;;;;;;13.62;60.63;99522.16;4435691;32;33157;-82
2023/11/20 10:58:14;;;;;;;0.40;0.40;;;;;;;13.52;60.99;99519.22;4433299;32;33051;-82
2023/11/20 11:00:41;;;;;;;2.08;1.27;;;;;;;13.86;59.51;99507.38;4423090;32;33880;-82
2023/11/20 11:03:11;;;;;;;0.00;0.00;;;;;;;13.80;59.66;99511.28;4421935;32;34257;-82
2023/11/20 11:05:46;;;;;;;0.95;0.77;;;;;;;13.92;57.96;99512.34;4407790;32;33493;-82
2023/11/20 11:08:16;;;;;;;0.10;0.10;;;;;;;13.98;58.01;99506.63;4427498;32;32898;-82
2023/11/20 11:10:44;;;;;;;0.40;0.28;;;;;;;13.96;58.10;99503.25;4420514;32;34181;-81
2023/11/20 11:13:12;;;;;;;2.15;0.43;;;;;;;13.93;58.42;99503.41;4428510;32;33125;-84
2023/11/20 11:15:40;;;;;;;4.15;1.45;;;;;;;13.88;59.20;99510.81;4419389;32;33888;-84
2023/11/20 11:18:12;;;;;;;0.22;0.22;;;;;;;14.07;57.12;99502.56;4420982;32;34307;-83
2023/11/20 11:20:52;;;;;;;0.00;0.00;;;;;;;14.08;57.49;99501.59;4406252;32;33411;-83
2023/11/20 11:23:40;;;;;;;0.65;0.65;;;;;;;13.91;59.39;99494.72;4405571;32;34493;-84
2023/11/20 11:26:23;;;;;;;0.28;0.28;;;;;;;14.18;58.99;99491.25;4414515;32;32695;-84
2023/11/20 11:28:54;;;;;;;2.62;1.23;;;;;;;14.08;58.91;99491.84;4405670;32;32724;-84
2023/11/20 11:31:27;;;;;;;0.62;0.62;;;;;;;13.95;60.50;99490.87;4403939;32;33821;-84
2023/11/20 11:34:09;;;;;;;0.22;0.22;;;;;;;13.76;61.64;99491.19;4432756;32;32563;-84
2023/11/20 11:37:03;;;;;;;3.97;1.10;;;;;;;13.86;61.54;99485.31;4419022;32;34707;-84
2023/11/20 11:39:40;;;;;;;0.40;0.40;;;;;;;14.37;59.61;99475.84;4406520;32;33753;-84
2023/11/20 11:42:16;;;;;;;0.57;0.57;;;;;;;14.27;60.01;99472.09;4426595;32;33283;-83
2023/11/20 11:44:58;;;;;;;0.60;0.60;;;;;;;14.49;59.71;99475.09;4424811;32;31922;-84
2023/11/20 11:47:27;;;;;;;0.65;0.65;;;;;;;14.66;59.52;99473.13;4419641;32;33925;-84